sensor_id;sensor_type;location;lat;lon;timestamp;P1;durP1;ratioP1;P2;durP2;ratioP2
62931;SDS011;49037;41.898;25.004;2022-08-03T00:01:48;2.72;;;2.53;;
62931;SDS011;49037;41.898;25.004;2022-08-03T00:07:47;3.10;;;2.90;;
62931;SDS011;49037;41.898;25.004;2022-08-03T00:10:15;2.70;;;2.50;;
62931;SDS011;49037;41.898;25.004;2022-08-03T00:12:46;3.28;;;2.50;;
62931;SDS011;49037;41.898;25.004;2022-08-03T00:15:20;2.60;;;2.40;;
62931;SDS011;49037;41.898;25.004;2022-08-03T00:19:18;2.60;;;2.50;;
62931;SDS011;49037;41.898;25.004;2022-08-03T00:22:34;2.72;;;2.53;;
62931;SDS011;49037;41.898;25.004;2022-08-03T00:24:59;2.67;;;2.47;;
62931;SDS011;49037;41.898;25.004;2022-08-03T00:27:33;2.70;;;2.50;;
62931;SDS011;49037;41.898;25.004;2022-08-03T00:29:58;3.00;;;2.80;;
62931;SDS011;49037;41.898;25.004;2022-08-03T00:33:38;2.55;;;2.35;;
62931;SDS011;49037;41.898;25.004;2022-08-03T00:36:03;2.72;;;2.53;;
62931;SDS011;49037;41.898;25.004;2022-08-03T00:38:31;2.85;;;2.47;;
62931;SDS011;49037;41.898;25.004;2022-08-03T00:40:59;2.83;;;2.63;;
62931;SDS011;49037;41.898;25.004;2022-08-03T00:43:36;2.72;;;2.53;;
62931;SDS011;49037;41.898;25.004;2022-08-03T00:46:01;2.85;;;2.65;;
62931;SDS011;49037;41.898;25.004;2022-08-03T00:48:29;2.97;;;2.50;;
62931;SDS011;49037;41.898;25.004;2022-08-03T00:50:55;2.63;;;2.42;;
62931;SDS011;49037;41.898;25.004;2022-08-03T00:54:18;2.60;;;2.40;;
62931;SDS011;49037;41.898;25.004;2022-08-03T00:59:09;2.75;;;2.35;;
62931;SDS011;49037;41.898;25.004;2022-08-03T01:01:47;3.17;;;2.47;;
62931;SDS011;49037;41.898;25.004;2022-08-03T01:04:22;2.85;;;2.50;;
62931;SDS011;49037;41.898;25.004;2022-08-03T01:06:51;2.78;;;2.58;;
62931;SDS011;49037;41.898;25.004;2022-08-03T01:14:28;2.40;;;2.30;;
62931;SDS011;49037;41.898;25.004;2022-08-03T01:20:08;2.85;;;2.65;;
62931;SDS011;49037;41.898;25.004;2022-08-03T01:39:38;2.67;;;2.47;;
62931;SDS011;49037;41.898;25.004;2022-08-03T01:42:08;3.13;;;2.60;;
62931;SDS011;49037;41.898;25.004;2022-08-03T01:45:35;2.95;;;2.75;;
62931;SDS011;49037;41.898;25.004;2022-08-03T01:58:37;2.70;;;2.50;;
62931;SDS011;49037;41.898;25.004;2022-08-03T02:01:40;2.47;;;2.38;;
62931;SDS011;49037;41.898;25.004;2022-08-03T02:04:09;2.67;;;2.47;;
62931;SDS011;49037;41.898;25.004;2022-08-03T02:35:35;3.30;;;3.00;;
62931;SDS011;49037;41.898;25.004;2022-08-03T02:38:34;3.03;;;2.50;;
62931;SDS011;49037;41.898;25.004;2022-08-03T02:41:30;2.60;;;2.40;;
62931;SDS011;49037;41.898;25.004;2022-08-03T02:44:03;3.20;;;2.83;;
62931;SDS011;49037;41.898;25.004;2022-08-03T02:49:39;3.10;;;2.67;;
62931;SDS011;49037;41.898;25.004;2022-08-03T02:52:17;2.90;;;2.70;;
62931;SDS011;49037;41.898;25.004;2022-08-03T02:55:18;2.80;;;2.60;;
62931;SDS011;49037;41.898;25.004;2022-08-03T02:57:45;2.53;;;2.33;;
62931;SDS011;49037;41.898;25.004;2022-08-03T03:00:12;4.07;;;2.42;;
62931;SDS011;49037;41.898;25.004;2022-08-03T03:02:39;3.00;;;2.78;;
62931;SDS011;49037;41.898;25.004;2022-08-03T03:05:08;3.45;;;2.70;;
62931;SDS011;49037;41.898;25.004;2022-08-03T03:07:36;4.53;;;2.55;;
62931;SDS011;49037;41.898;25.004;2022-08-03T03:12:48;2.72;;;2.53;;
62931;SDS011;49037;41.898;25.004;2022-08-03T03:15:16;3.65;;;2.67;;
62931;SDS011;49037;41.898;25.004;2022-08-03T03:17:45;2.67;;;2.47;;
62931;SDS011;49037;41.898;25.004;2022-08-03T03:20:19;3.65;;;2.72;;
62931;SDS011;49037;41.898;25.004;2022-08-03T03:22:52;2.83;;;2.63;;
62931;SDS011;49037;41.898;25.004;2022-08-03T03:25:29;3.70;;;2.88;;
62931;SDS011;49037;41.898;25.004;2022-08-03T03:38:32;3.75;;;2.78;;
62931;SDS011;49037;41.898;25.004;2022-08-03T03:41:36;2.70;;;2.50;;
62931;SDS011;49037;41.898;25.004;2022-08-03T03:47:14;3.00;;;2.70;;
62931;SDS011;49037;41.898;25.004;2022-08-03T03:49:42;3.38;;;2.78;;
62931;SDS011;49037;41.898;25.004;2022-08-03T03:52:11;2.80;;;2.60;;
62931;SDS011;49037;41.898;25.004;2022-08-03T03:58:23;2.50;;;2.30;;
62931;SDS011;49037;41.898;25.004;2022-08-03T04:00:54;3.63;;;2.80;;
62931;SDS011;49037;41.898;25.004;2022-08-03T04:03:30;4.25;;;2.78;;
62931;SDS011;49037;41.898;25.004;2022-08-03T04:06:05;3.22;;;2.60;;
62931;SDS011;49037;41.898;25.004;2022-08-03T04:20:26;3.13;;;2.70;;
62931;SDS011;49037;41.898;25.004;2022-08-03T04:23:19;2.80;;;2.53;;
62931;SDS011;49037;41.898;25.004;2022-08-03T04:25:54;2.90;;;2.70;;
62931;SDS011;49037;41.898;25.004;2022-08-03T04:28:22;2.60;;;2.45;;
62931;SDS011;49037;41.898;25.004;2022-08-03T04:30:57;2.53;;;2.40;;
62931;SDS011;49037;41.898;25.004;2022-08-03T04:33:24;2.70;;;2.50;;
62931;SDS011;49037;41.898;25.004;2022-08-03T04:35:53;3.05;;;2.42;;
62931;SDS011;49037;41.898;25.004;2022-08-03T04:44:22;2.72;;;2.53;;
62931;SDS011;49037;41.898;25.004;2022-08-03T05:00:09;3.00;;;2.80;;
62931;SDS011;49037;41.898;25.004;2022-08-03T05:06:17;3.20;;;2.90;;
62931;SDS011;49037;41.898;25.004;2022-08-03T05:09:01;2.72;;;2.47;;
62931;SDS011;49037;41.898;25.004;2022-08-03T05:23:57;3.03;;;2.83;;
62931;SDS011;49037;41.898;25.004;2022-08-03T05:29:24;4.38;;;2.70;;
62931;SDS011;49037;41.898;25.004;2022-08-03T05:43:05;3.65;;;2.60;;
62931;SDS011;49037;41.898;25.004;2022-08-03T06:05:20;4.70;;;3.78;;
62931;SDS011;49037;41.898;25.004;2022-08-03T07:05:29;9.75;;;3.90;;
62931;SDS011;49037;41.898;25.004;2022-08-03T07:09:43;8.27;;;3.58;;
62931;SDS011;49037;41.898;25.004;2022-08-03T07:15:06;4.10;;;3.25;;
62931;SDS011;49037;41.898;25.004;2022-08-03T07:17:34;5.20;;;3.63;;
62931;SDS011;49037;41.898;25.004;2022-08-03T07:20:01;4.30;;;3.90;;
62931;SDS011;49037;41.898;25.004;2022-08-03T07:22:36;3.58;;;3.28;;
62931;SDS011;49037;41.898;25.004;2022-08-03T07:25:03;4.18;;;3.78;;
62931;SDS011;49037;41.898;25.004;2022-08-03T07:27:29;5.13;;;3.50;;
62931;SDS011;49037;41.898;25.004;2022-08-03T07:29:55;3.88;;;3.53;;
62931;SDS011;49037;41.898;25.004;2022-08-03T07:32:22;4.07;;;3.60;;
62931;SDS011;49037;41.898;25.004;2022-08-03T07:35:07;3.55;;;3.25;;
62931;SDS011;49037;41.898;25.004;2022-08-03T07:37:34;4.97;;;3.72;;
62931;SDS011;49037;41.898;25.004;2022-08-03T07:40:00;5.70;;;3.58;;
62931;SDS011;49037;41.898;25.004;2022-08-03T07:42:29;4.13;;;3.45;;
62931;SDS011;49037;41.898;25.004;2022-08-03T07:44:55;7.43;;;3.85;;
62931;SDS011;49037;41.898;25.004;2022-08-03T07:47:28;40.03;;;4.55;;
62931;SDS011;49037;41.898;25.004;2022-08-03T07:49:55;5.22;;;3.80;;
62931;SDS011;49037;41.898;25.004;2022-08-03T07:52:21;4.78;;;3.97;;
62931;SDS011;49037;41.898;25.004;2022-08-03T07:55:05;6.95;;;4.13;;
62931;SDS011;49037;41.898;25.004;2022-08-03T07:57:31;6.05;;;3.78;;
62931;SDS011;49037;41.898;25.004;2022-08-03T07:59:57;6.00;;;4.35;;
62931;SDS011;49037;41.898;25.004;2022-08-03T08:02:23;4.25;;;3.85;;
62931;SDS011;49037;41.898;25.004;2022-08-03T08:04:49;7.07;;;4.20;;
62931;SDS011;49037;41.898;25.004;2022-08-03T08:07:14;7.80;;;4.38;;
62931;SDS011;49037;41.898;25.004;2022-08-03T08:09:39;4.75;;;4.22;;
62931;SDS011;49037;41.898;25.004;2022-08-03T08:12:05;4.32;;;3.92;;
62931;SDS011;49037;41.898;25.004;2022-08-03T08:14:32;4.70;;;4.20;;
62931;SDS011;49037;41.898;25.004;2022-08-03T08:16:58;6.72;;;4.10;;
62931;SDS011;49037;41.898;25.004;2022-08-03T08:19:23;4.80;;;4.40;;
62931;SDS011;49037;41.898;25.004;2022-08-03T08:21:49;5.53;;;4.47;;
62931;SDS011;49037;41.898;25.004;2022-08-03T08:24:14;5.60;;;4.43;;
62931;SDS011;49037;41.898;25.004;2022-08-03T08:26:40;5.55;;;4.78;;
62931;SDS011;49037;41.898;25.004;2022-08-03T08:29:05;7.15;;;4.45;;
62931;SDS011;49037;41.898;25.004;2022-08-03T08:31:31;4.68;;;4.18;;
62931;SDS011;49037;41.898;25.004;2022-08-03T08:33:56;5.90;;;4.38;;
62931;SDS011;49037;41.898;25.004;2022-08-03T08:36:22;4.97;;;4.43;;
62931;SDS011;49037;41.898;25.004;2022-08-03T08:38:48;5.93;;;4.55;;
62931;SDS011;49037;41.898;25.004;2022-08-03T08:41:13;6.15;;;4.25;;
62931;SDS011;49037;41.898;25.004;2022-08-03T08:43:40;7.10;;;4.10;;
62931;SDS011;49037;41.898;25.004;2022-08-03T08:46:07;4.95;;;4.38;;
62931;SDS011;49037;41.898;25.004;2022-08-03T08:48:41;10.32;;;4.80;;
62931;SDS011;49037;41.898;25.004;2022-08-03T08:51:10;5.50;;;4.70;;
62931;SDS011;49037;41.898;25.004;2022-08-03T08:53:37;5.63;;;4.07;;
62931;SDS011;49037;41.898;25.004;2022-08-03T08:56:08;5.88;;;4.60;;
62931;SDS011;49037;41.898;25.004;2022-08-03T08:58:46;5.30;;;4.40;;
62931;SDS011;49037;41.898;25.004;2022-08-03T09:01:25;5.57;;;4.70;;
62931;SDS011;49037;41.898;25.004;2022-08-03T09:03:51;5.85;;;4.57;;
62931;SDS011;49037;41.898;25.004;2022-08-03T09:06:18;6.00;;;4.40;;
62931;SDS011;49037;41.898;25.004;2022-08-03T09:08:45;7.20;;;4.80;;
62931;SDS011;49037;41.898;25.004;2022-08-03T09:11:10;5.35;;;4.75;;
62931;SDS011;49037;41.898;25.004;2022-08-03T09:13:36;4.82;;;4.40;;
62931;SDS011;49037;41.898;25.004;2022-08-03T09:16:11;7.22;;;5.00;;
62931;SDS011;49037;41.898;25.004;2022-08-03T09:18:43;5.28;;;4.07;;
62931;SDS011;49037;41.898;25.004;2022-08-03T09:23:51;6.25;;;4.35;;
62931;SDS011;49037;41.898;25.004;2022-08-03T09:26:22;5.38;;;4.50;;
62931;SDS011;49037;41.898;25.004;2022-08-03T09:28:53;7.18;;;4.90;;
62931;SDS011;49037;41.898;25.004;2022-08-03T09:31:45;5.20;;;4.72;;
62931;SDS011;49037;41.898;25.004;2022-08-03T09:34:12;5.75;;;4.60;;
62931;SDS011;49037;41.898;25.004;2022-08-03T09:36:43;4.50;;;4.10;;
62931;SDS011;49037;41.898;25.004;2022-08-03T09:39:10;7.43;;;4.50;;
62931;SDS011;49037;41.898;25.004;2022-08-03T09:41:38;6.32;;;4.70;;
62931;SDS011;49037;41.898;25.004;2022-08-03T09:44:05;5.28;;;4.78;;
62931;SDS011;49037;41.898;25.004;2022-08-03T09:46:31;11.30;;;5.28;;
62931;SDS011;49037;41.898;25.004;2022-08-03T09:49:18;6.63;;;4.75;;
62931;SDS011;49037;41.898;25.004;2022-08-03T09:51:43;5.72;;;4.35;;
62931;SDS011;49037;41.898;25.004;2022-08-03T09:54:09;5.68;;;4.85;;
62931;SDS011;49037;41.898;25.004;2022-08-03T09:56:42;4.88;;;4.43;;
62931;SDS011;49037;41.898;25.004;2022-08-03T09:59:09;5.18;;;4.65;;
62931;SDS011;49037;41.898;25.004;2022-08-03T10:01:36;6.40;;;4.93;;
62931;SDS011;49037;41.898;25.004;2022-08-03T10:04:05;6.25;;;4.57;;
62931;SDS011;49037;41.898;25.004;2022-08-03T10:06:36;6.03;;;4.78;;
62931;SDS011;49037;41.898;25.004;2022-08-03T10:09:09;5.55;;;5.03;;
62931;SDS011;49037;41.898;25.004;2022-08-03T10:11:38;7.82;;;4.80;;
62931;SDS011;49037;41.898;25.004;2022-08-03T10:14:06;9.07;;;4.93;;
62931;SDS011;49037;41.898;25.004;2022-08-03T10:16:36;5.95;;;4.97;;
62931;SDS011;49037;41.898;25.004;2022-08-03T10:19:04;7.32;;;4.97;;
62931;SDS011;49037;41.898;25.004;2022-08-03T10:21:36;8.05;;;4.90;;
62931;SDS011;49037;41.898;25.004;2022-08-03T10:24:07;6.25;;;5.18;;
62931;SDS011;49037;41.898;25.004;2022-08-03T10:26:35;5.30;;;4.78;;
62931;SDS011;49037;41.898;25.004;2022-08-03T10:29:03;5.78;;;4.93;;
62931;SDS011;49037;41.898;25.004;2022-08-03T10:31:43;9.43;;;5.18;;
62931;SDS011;49037;41.898;25.004;2022-08-03T10:34:14;8.13;;;5.05;;
62931;SDS011;49037;41.898;25.004;2022-08-03T10:36:48;6.53;;;5.18;;
62931;SDS011;49037;41.898;25.004;2022-08-03T10:39:18;7.95;;;5.47;;
62931;SDS011;49037;41.898;25.004;2022-08-03T10:41:45;6.53;;;4.97;;
62931;SDS011;49037;41.898;25.004;2022-08-03T10:44:22;6.18;;;5.40;;
62931;SDS011;49037;41.898;25.004;2022-08-03T10:46:50;6.43;;;5.15;;
62931;SDS011;49037;41.898;25.004;2022-08-03T10:49:17;5.82;;;5.00;;
62931;SDS011;49037;41.898;25.004;2022-08-03T10:51:43;5.97;;;5.38;;
62931;SDS011;49037;41.898;25.004;2022-08-03T11:00:08;5.60;;;5.03;;
62931;SDS011;49037;41.898;25.004;2022-08-03T11:05:32;5.45;;;4.53;;
62931;SDS011;49037;41.898;25.004;2022-08-03T11:10:45;5.32;;;4.82;;
62931;SDS011;49037;41.898;25.004;2022-08-03T11:13:14;4.90;;;4.50;;
62931;SDS011;49037;41.898;25.004;2022-08-03T11:15:41;5.00;;;4.60;;
62931;SDS011;49037;41.898;25.004;2022-08-03T11:18:09;8.20;;;4.85;;
62931;SDS011;49037;41.898;25.004;2022-08-03T11:20:49;4.70;;;4.15;;
62931;SDS011;49037;41.898;25.004;2022-08-03T11:23:20;4.80;;;4.40;;
62931;SDS011;49037;41.898;25.004;2022-08-03T11:26:11;4.35;;;3.90;;
62931;SDS011;49037;41.898;25.004;2022-08-03T11:31:52;4.38;;;4.00;;
62931;SDS011;49037;41.898;25.004;2022-08-03T11:34:18;4.60;;;4.20;;
62931;SDS011;49037;41.898;25.004;2022-08-03T11:39:45;4.28;;;3.88;;
62931;SDS011;49037;41.898;25.004;2022-08-03T11:44:46;5.63;;;4.20;;
62931;SDS011;49037;41.898;25.004;2022-08-03T11:47:13;4.75;;;4.35;;
62931;SDS011;49037;41.898;25.004;2022-08-03T11:49:43;4.30;;;3.90;;
62931;SDS011;49037;41.898;25.004;2022-08-03T11:52:13;5.47;;;4.57;;
62931;SDS011;49037;41.898;25.004;2022-08-03T11:54:40;4.88;;;4.47;;
62931;SDS011;49037;41.898;25.004;2022-08-03T11:57:06;4.25;;;3.85;;
62931;SDS011;49037;41.898;25.004;2022-08-03T11:59:32;6.05;;;4.43;;
62931;SDS011;49037;41.898;25.004;2022-08-03T12:02:08;4.15;;;3.83;;
62931;SDS011;49037;41.898;25.004;2022-08-03T12:04:51;8.43;;;4.20;;
62931;SDS011;49037;41.898;25.004;2022-08-03T12:07:26;5.07;;;4.20;;
62931;SDS011;49037;41.898;25.004;2022-08-03T12:10:08;4.35;;;3.95;;
62931;SDS011;49037;41.898;25.004;2022-08-03T12:12:35;4.43;;;4.03;;
62931;SDS011;49037;41.898;25.004;2022-08-03T12:15:01;3.92;;;3.53;;
62931;SDS011;49037;41.898;25.004;2022-08-03T12:17:38;4.50;;;3.78;;
62931;SDS011;49037;41.898;25.004;2022-08-03T12:20:06;6.93;;;3.70;;
62931;SDS011;49037;41.898;25.004;2022-08-03T12:22:34;4.15;;;3.80;;
62931;SDS011;49037;41.898;25.004;2022-08-03T12:25:04;3.88;;;3.58;;
62931;SDS011;49037;41.898;25.004;2022-08-03T12:27:31;3.70;;;3.42;;
62931;SDS011;49037;41.898;25.004;2022-08-03T12:29:57;4.13;;;3.72;;
62931;SDS011;49037;41.898;25.004;2022-08-03T12:32:23;4.30;;;3.30;;
62931;SDS011;49037;41.898;25.004;2022-08-03T12:37:18;6.30;;;3.72;;
62931;SDS011;49037;41.898;25.004;2022-08-03T12:39:55;4.93;;;3.40;;
62931;SDS011;49037;41.898;25.004;2022-08-03T12:42:34;4.40;;;3.67;;
62931;SDS011;49037;41.898;25.004;2022-08-03T12:45:16;4.38;;;3.95;;
62931;SDS011;49037;41.898;25.004;2022-08-03T12:50:31;7.10;;;3.53;;
62931;SDS011;49037;41.898;25.004;2022-08-03T12:52:59;5.22;;;4.35;;
62931;SDS011;49037;41.898;25.004;2022-08-03T12:55:28;3.65;;;3.35;;
62931;SDS011;49037;41.898;25.004;2022-08-03T13:00:57;4.13;;;3.50;;
62931;SDS011;49037;41.898;25.004;2022-08-03T13:03:23;5.68;;;3.65;;
62931;SDS011;49037;41.898;25.004;2022-08-03T13:05:49;4.10;;;3.67;;
62931;SDS011;49037;41.898;25.004;2022-08-03T13:08:21;3.75;;;3.45;;
62931;SDS011;49037;41.898;25.004;2022-08-03T13:10:48;4.57;;;3.65;;
62931;SDS011;49037;41.898;25.004;2022-08-03T13:13:14;4.95;;;3.40;;
62931;SDS011;49037;41.898;25.004;2022-08-03T13:15:40;3.47;;;3.20;;
62931;SDS011;49037;41.898;25.004;2022-08-03T13:18:05;4.25;;;3.50;;
62931;SDS011;49037;41.898;25.004;2022-08-03T13:20:37;4.22;;;3.60;;
62931;SDS011;49037;41.898;25.004;2022-08-03T13:23:02;7.00;;;4.32;;
62931;SDS011;49037;41.898;25.004;2022-08-03T13:25:28;4.68;;;3.92;;
62931;SDS011;49037;41.898;25.004;2022-08-03T13:27:53;5.00;;;3.30;;
62931;SDS011;49037;41.898;25.004;2022-08-03T13:30:19;3.50;;;3.20;;
62931;SDS011;49037;41.898;25.004;2022-08-03T13:32:44;6.22;;;3.50;;
62931;SDS011;49037;41.898;25.004;2022-08-03T13:35:10;6.55;;;3.35;;
62931;SDS011;49037;41.898;25.004;2022-08-03T13:37:35;3.60;;;3.05;;
62931;SDS011;49037;41.898;25.004;2022-08-03T13:40:02;9.88;;;3.78;;
62931;SDS011;49037;41.898;25.004;2022-08-03T13:42:31;3.78;;;3.30;;
62931;SDS011;49037;41.898;25.004;2022-08-03T13:44:58;3.65;;;3.35;;
62931;SDS011;49037;41.898;25.004;2022-08-03T13:47:24;3.65;;;3.30;;
62931;SDS011;49037;41.898;25.004;2022-08-03T13:49:50;3.90;;;3.60;;
62931;SDS011;49037;41.898;25.004;2022-08-03T13:52:17;3.85;;;3.55;;
62931;SDS011;49037;41.898;25.004;2022-08-03T13:54:43;3.30;;;3.08;;
62931;SDS011;49037;41.898;25.004;2022-08-03T13:57:08;5.00;;;3.40;;
62931;SDS011;49037;41.898;25.004;2022-08-03T13:59:35;3.35;;;3.10;;
62931;SDS011;49037;41.898;25.004;2022-08-03T14:02:01;3.85;;;3.22;;
62931;SDS011;49037;41.898;25.004;2022-08-03T14:04:26;4.28;;;3.40;;
62931;SDS011;49037;41.898;25.004;2022-08-03T14:06:52;5.70;;;3.40;;
62931;SDS011;49037;41.898;25.004;2022-08-03T14:09:17;4.78;;;3.50;;
62931;SDS011;49037;41.898;25.004;2022-08-03T14:11:43;6.63;;;3.90;;
62931;SDS011;49037;41.898;25.004;2022-08-03T14:14:09;3.75;;;3.38;;
62931;SDS011;49037;41.898;25.004;2022-08-03T14:16:36;5.20;;;3.72;;
62931;SDS011;49037;41.898;25.004;2022-08-03T14:19:02;10.68;;;5.95;;
62931;SDS011;49037;41.898;25.004;2022-08-03T14:21:36;8.60;;;5.80;;
62931;SDS011;49037;41.898;25.004;2022-08-03T14:24:01;9.98;;;5.20;;
62931;SDS011;49037;41.898;25.004;2022-08-03T14:26:27;3.85;;;3.55;;
62931;SDS011;49037;41.898;25.004;2022-08-03T14:28:52;3.70;;;3.40;;
62931;SDS011;49037;41.898;25.004;2022-08-03T14:31:18;4.70;;;3.40;;
62931;SDS011;49037;41.898;25.004;2022-08-03T14:33:43;4.00;;;3.40;;
62931;SDS011;49037;41.898;25.004;2022-08-03T14:36:09;7.03;;;3.42;;
62931;SDS011;49037;41.898;25.004;2022-08-03T14:38:35;5.80;;;3.20;;
62931;SDS011;49037;41.898;25.004;2022-08-03T14:41:00;3.88;;;3.58;;
62931;SDS011;49037;41.898;25.004;2022-08-03T14:43:25;3.83;;;3.25;;
62931;SDS011;49037;41.898;25.004;2022-08-03T14:45:51;4.90;;;3.40;;
62931;SDS011;49037;41.898;25.004;2022-08-03T14:48:21;6.75;;;3.25;;
62931;SDS011;49037;41.898;25.004;2022-08-03T14:50:49;3.72;;;3.33;;
62931;SDS011;49037;41.898;25.004;2022-08-03T14:53:16;6.00;;;3.20;;
62931;SDS011;49037;41.898;25.004;2022-08-03T14:55:42;4.25;;;3.15;;
62931;SDS011;49037;41.898;25.004;2022-08-03T14:58:08;4.35;;;3.63;;
62931;SDS011;49037;41.898;25.004;2022-08-03T15:00:33;7.47;;;3.80;;
62931;SDS011;49037;41.898;25.004;2022-08-03T15:03:00;7.72;;;4.40;;
62931;SDS011;49037;41.898;25.004;2022-08-03T15:05:26;4.30;;;3.50;;
62931;SDS011;49037;41.898;25.004;2022-08-03T15:07:52;11.65;;;4.00;;
62931;SDS011;49037;41.898;25.004;2022-08-03T15:10:18;9.02;;;3.88;;
62931;SDS011;49037;41.898;25.004;2022-08-03T15:12:43;4.60;;;3.15;;
62931;SDS011;49037;41.898;25.004;2022-08-03T15:15:09;3.65;;;3.30;;
62931;SDS011;49037;41.898;25.004;2022-08-03T15:17:35;3.85;;;3.47;;
62931;SDS011;49037;41.898;25.004;2022-08-03T15:20:00;5.55;;;3.20;;
62931;SDS011;49037;41.898;25.004;2022-08-03T15:22:26;4.68;;;3.45;;
62931;SDS011;49037;41.898;25.004;2022-08-03T15:28:15;7.03;;;3.55;;
62931;SDS011;49037;41.898;25.004;2022-08-03T15:34:45;3.10;;;2.90;;
62931;SDS011;49037;41.898;25.004;2022-08-03T16:36:12;5.65;;;2.80;;
62931;SDS011;49037;41.898;25.004;2022-08-03T17:13:51;3.88;;;3.00;;
62931;SDS011;49037;41.898;25.004;2022-08-03T17:16:22;8.43;;;4.22;;
62931;SDS011;49037;41.898;25.004;2022-08-03T17:25:31;3.10;;;2.90;;
62931;SDS011;49037;41.898;25.004;2022-08-03T17:31:01;3.28;;;2.97;;
62931;SDS011;49037;41.898;25.004;2022-08-03T17:34:08;5.03;;;2.90;;
62931;SDS011;49037;41.898;25.004;2022-08-03T17:36:52;3.00;;;2.80;;
62931;SDS011;49037;41.898;25.004;2022-08-03T17:39:38;2.97;;;2.78;;
62931;SDS011;49037;41.898;25.004;2022-08-03T17:42:10;3.90;;;3.30;;
62931;SDS011;49037;41.898;25.004;2022-08-03T17:48:05;3.25;;;2.97;;
62931;SDS011;49037;41.898;25.004;2022-08-03T17:50:41;2.92;;;2.60;;
62931;SDS011;49037;41.898;25.004;2022-08-03T18:08:53;4.50;;;2.80;;
62931;SDS011;49037;41.898;25.004;2022-08-03T18:11:42;3.42;;;2.70;;
62931;SDS011;49037;41.898;25.004;2022-08-03T18:14:51;3.47;;;2.92;;
62931;SDS011;49037;41.898;25.004;2022-08-03T18:20:31;2.80;;;2.60;;
62931;SDS011;49037;41.898;25.004;2022-08-03T18:29:51;3.42;;;3.13;;
62931;SDS011;49037;41.898;25.004;2022-08-03T18:35:06;3.65;;;2.67;;
62931;SDS011;49037;41.898;25.004;2022-08-03T18:37:43;2.85;;;2.65;;
62931;SDS011;49037;41.898;25.004;2022-08-03T18:43:27;3.35;;;3.10;;
62931;SDS011;49037;41.898;25.004;2022-08-03T18:55:03;2.95;;;2.60;;
62931;SDS011;49037;41.898;25.004;2022-08-03T18:58:23;3.35;;;2.80;;
62931;SDS011;49037;41.898;25.004;2022-08-03T19:04:37;3.15;;;2.95;;
62931;SDS011;49037;41.898;25.004;2022-08-03T19:07:02;8.82;;;3.95;;
62931;SDS011;49037;41.898;25.004;2022-08-03T19:09:47;3.20;;;3.00;;
62931;SDS011;49037;41.898;25.004;2022-08-03T19:12:23;3.10;;;2.90;;
62931;SDS011;49037;41.898;25.004;2022-08-03T19:15:46;2.88;;;2.67;;
62931;SDS011;49037;41.898;25.004;2022-08-03T19:18:23;2.80;;;2.60;;
62931;SDS011;49037;41.898;25.004;2022-08-03T19:20:56;5.38;;;3.20;;
62931;SDS011;49037;41.898;25.004;2022-08-03T19:26:06;2.63;;;2.42;;
62931;SDS011;49037;41.898;25.004;2022-08-03T19:33:14;2.78;;;2.60;;
62931;SDS011;49037;41.898;25.004;2022-08-03T19:35:44;2.78;;;2.58;;
62931;SDS011;49037;41.898;25.004;2022-08-03T19:49:49;3.70;;;2.95;;
62931;SDS011;49037;41.898;25.004;2022-08-03T19:52:15;2.78;;;2.50;;
62931;SDS011;49037;41.898;25.004;2022-08-03T19:56:05;3.03;;;2.65;;
62931;SDS011;49037;41.898;25.004;2022-08-03T19:58:43;3.05;;;2.85;;
62931;SDS011;49037;41.898;25.004;2022-08-03T20:01:13;3.00;;;2.80;;
62931;SDS011;49037;41.898;25.004;2022-08-03T20:03:38;2.80;;;2.60;;
62931;SDS011;49037;41.898;25.004;2022-08-03T20:06:07;2.83;;;2.58;;
62931;SDS011;49037;41.898;25.004;2022-08-03T20:08:37;2.83;;;2.63;;
62931;SDS011;49037;41.898;25.004;2022-08-03T20:11:07;3.10;;;2.80;;
62931;SDS011;49037;41.898;25.004;2022-08-03T20:13:33;6.55;;;3.90;;
62931;SDS011;49037;41.898;25.004;2022-08-03T20:16:14;3.00;;;2.70;;
62931;SDS011;49037;41.898;25.004;2022-08-03T20:18:39;2.78;;;2.58;;
62931;SDS011;49037;41.898;25.004;2022-08-03T20:21:09;3.10;;;2.80;;
62931;SDS011;49037;41.898;25.004;2022-08-03T20:23:37;3.60;;;2.70;;
62931;SDS011;49037;41.898;25.004;2022-08-03T20:27:46;3.20;;;3.00;;
62931;SDS011;49037;41.898;25.004;2022-08-03T20:30:15;4.45;;;3.13;;
62931;SDS011;49037;41.898;25.004;2022-08-03T20:33:00;3.10;;;2.60;;
62931;SDS011;49037;41.898;25.004;2022-08-03T20:35:29;3.90;;;2.80;;
62931;SDS011;49037;41.898;25.004;2022-08-03T20:38:02;3.30;;;2.80;;
62931;SDS011;49037;41.898;25.004;2022-08-03T20:40:27;3.10;;;2.90;;
62931;SDS011;49037;41.898;25.004;2022-08-03T20:45:18;3.20;;;2.90;;
62931;SDS011;49037;41.898;25.004;2022-08-03T20:47:48;2.92;;;2.63;;
62931;SDS011;49037;41.898;25.004;2022-08-03T20:50:15;2.78;;;2.58;;
62931;SDS011;49037;41.898;25.004;2022-08-03T20:52:40;2.80;;;2.60;;
62931;SDS011;49037;41.898;25.004;2022-08-03T20:55:06;4.63;;;3.00;;
62931;SDS011;49037;41.898;25.004;2022-08-03T20:57:35;2.90;;;2.70;;
62931;SDS011;49037;41.898;25.004;2022-08-03T21:00:01;3.08;;;2.88;;
62931;SDS011;49037;41.898;25.004;2022-08-03T21:02:33;3.28;;;2.97;;
62931;SDS011;49037;41.898;25.004;2022-08-03T21:04:59;2.90;;;2.70;;
62931;SDS011;49037;41.898;25.004;2022-08-03T21:09:03;3.38;;;3.05;;
62931;SDS011;49037;41.898;25.004;2022-08-03T21:11:38;3.53;;;3.22;;
62931;SDS011;49037;41.898;25.004;2022-08-03T21:14:22;3.33;;;2.83;;
62931;SDS011;49037;41.898;25.004;2022-08-03T21:16:52;3.40;;;3.10;;
62931;SDS011;49037;41.898;25.004;2022-08-03T21:20:26;3.50;;;3.20;;
62931;SDS011;49037;41.898;25.004;2022-08-03T21:22:58;3.58;;;3.20;;
62931;SDS011;49037;41.898;25.004;2022-08-03T21:25:31;3.50;;;3.15;;
62931;SDS011;49037;41.898;25.004;2022-08-03T21:27:58;3.67;;;3.40;;
62931;SDS011;49037;41.898;25.004;2022-08-03T21:30:25;3.70;;;3.17;;
62931;SDS011;49037;41.898;25.004;2022-08-03T21:32:53;3.65;;;3.35;;
62931;SDS011;49037;41.898;25.004;2022-08-03T21:35:20;3.70;;;3.13;;
62931;SDS011;49037;41.898;25.004;2022-08-03T21:37:47;3.40;;;3.20;;
62931;SDS011;49037;41.898;25.004;2022-08-03T21:40:32;3.70;;;3.40;;
62931;SDS011;49037;41.898;25.004;2022-08-03T21:43:18;3.63;;;3.33;;
62931;SDS011;49037;41.898;25.004;2022-08-03T21:45:46;3.97;;;3.58;;
62931;SDS011;49037;41.898;25.004;2022-08-03T21:48:16;3.47;;;3.22;;
62931;SDS011;49037;41.898;25.004;2022-08-03T21:50:43;3.90;;;3.60;;
62931;SDS011;49037;41.898;25.004;2022-08-03T21:53:34;3.90;;;3.60;;
62931;SDS011;49037;41.898;25.004;2022-08-03T21:56:07;3.88;;;3.30;;
62931;SDS011;49037;41.898;25.004;2022-08-03T21:58:40;3.47;;;3.20;;
62931;SDS011;49037;41.898;25.004;2022-08-03T22:01:09;3.78;;;3.40;;
62931;SDS011;49037;41.898;25.004;2022-08-03T22:03:37;4.18;;;3.50;;
62931;SDS011;49037;41.898;25.004;2022-08-03T22:07:43;3.92;;;3.58;;
62931;SDS011;49037;41.898;25.004;2022-08-03T22:10:09;3.97;;;3.67;;
62931;SDS011;49037;41.898;25.004;2022-08-03T22:12:36;4.63;;;4.20;;
62931;SDS011;49037;41.898;25.004;2022-08-03T22:15:24;3.72;;;3.42;;
62931;SDS011;49037;41.898;25.004;2022-08-03T22:17:50;5.07;;;4.15;;
62931;SDS011;49037;41.898;25.004;2022-08-03T22:22:55;4.40;;;4.00;;
62931;SDS011;49037;41.898;25.004;2022-08-03T22:25:31;4.50;;;4.07;;
62931;SDS011;49037;41.898;25.004;2022-08-03T22:28:00;4.50;;;4.10;;
62931;SDS011;49037;41.898;25.004;2022-08-03T22:30:33;4.38;;;3.97;;
62931;SDS011;49037;41.898;25.004;2022-08-03T22:33:05;4.70;;;4.20;;
62931;SDS011;49037;41.898;25.004;2022-08-03T22:35:34;4.90;;;4.40;;
62931;SDS011;49037;41.898;25.004;2022-08-03T22:38:03;4.82;;;4.30;;